PWSweather.com
Personal Weather Stations
Station Observations
KMIEASTT1
Tawas Bay, East Tawas, MI 48730

Tawas BayEast Tawas, MI 48730

Lat: 44.28, Lon: -83.48

Elevation: 600

Station Type: Davis VantagePro

http://www.tawasbayweather.com

High Low Average
Temperature 72.6°F22.6°F 56.4°F13.6°F 62.3°F16.8°F
Dew Point 59.2°F15.1°F 52.8°F11.6°F 55.8°F13.2°F
Winds 13.0 mph WSW20.9 mph WSW Calm Calm 3.1 mph 5.0 mph
Wind Gusts 21.0 mph33.8 mph -- 5.9 mph9.5 mph
Humidity 91% 53% 80%
Pressure 29.93 in1013.50 in 29.65 in1004.10 in -
Precipitation 0.61 in15.50 in - -
Hour Temp Dew Point Humidity Winds Wind Gusts Pressure Precip Precip Rate Daily Precip Total
12:00 AM 62.8°F17.1°C 58.2°F14.6°C 85% Calm Calm 3.0 mph4.8 kmh 29.65 in1004.1 mb 0.00 in0.0 mm 0.00 in0.0 mm 0.00 in0.0 mm
12:15 AM 62.5°F16.9°C 58.6°F14.8°C 87% Calm Calm 2.0 mph3.2 kmh 29.66 in1004.4 mb 0.00 in0.0 mm 0.00 in0.0 mm 0.00 in0.0 mm
12:30 AM 62.1°F16.7°C 58.5°F14.7°C 88% Calm Calm 1.0 mph1.6 kmh 29.66 in1004.4 mb 0.00 in0.0 mm 0.00 in0.0 mm 0.00 in0.0 mm
12:45 AM 61.6°F16.4°C 58.3°F14.6°C 89% Calm Calm -- 29.67 in1004.7 mb 0.00 in0.0 mm 0.00 in0.0 mm 0.00 in0.0 mm
01:00 AM 60.9°F16.1°C 57.3°F14.1°C 88% Calm Calm -- 29.67 in1004.7 mb 0.00 in0.0 mm 0.00 in0.0 mm 0.00 in0.0 mm
01:15 AM 60.3°F15.7°C 57.1°F13.9°C 89% Calm Calm -- 29.67 in1004.7 mb 0.00 in0.0 mm 0.00 in0.0 mm 0.00 in0.0 mm
01:30 AM 59.7°F15.4°C 56.5°F13.6°C 89% Calm Calm -- 29.68 in1005.1 mb 0.00 in0.0 mm 0.00 in0.0 mm 0.00 in0.0 mm
01:45 AM 59.2°F15.1°C 56.0°F13.3°C 89% Calm Calm -- 29.68 in1005.1 mb 0.00 in0.0 mm 0.00 in0.0 mm 0.00 in0.0 mm
02:00 AM 59.0°F15.0°C 56.1°F13.4°C 90% Calm Calm -- 29.69 in1005.4 mb 0.00 in0.0 mm 0.00 in0.0 mm 0.00 in0.0 mm
02:15 AM 59.1°F15.1°C 56.2°F13.4°C 90% Calm Calm -- 29.70 in1005.8 mb 0.00 in0.0 mm 0.00 in0.0 mm 0.00 in0.0 mm
02:30 AM 59.1°F15.1°C 55.9°F13.3°C 89% 1.0 mph NE1.6 kmh NE 1.0 mph1.6 kmh 29.70 in1005.8 mb 0.00 in0.0 mm 0.00 in0.0 mm 0.00 in0.0 mm
02:45 AM 59.2°F15.1°C 55.3°F12.9°C 87% Calm Calm -- 29.70 in1005.8 mb 0.00 in0.0 mm 0.00 in0.0 mm 0.00 in0.0 mm
03:00 AM 59.3°F15.2°C 55.1°F12.8°C 86% Calm Calm -- 29.69 in1005.4 mb 0.00 in0.0 mm 0.00 in0.0 mm 0.00 in0.0 mm
03:15 AM 59.3°F15.2°C 55.4°F13.0°C 87% Calm Calm -- 29.69 in1005.4 mb 0.00 in0.0 mm 0.00 in0.0 mm 0.00 in0.0 mm
03:30 AM 59.2°F15.1°C 55.3°F12.9°C 87% Calm Calm -- 29.69 in1005.4 mb 0.00 in0.0 mm 0.00 in0.0 mm 0.00 in0.0 mm
03:45 AM 59.2°F15.1°C 55.7°F13.2°C 88% Calm Calm 1.0 mph1.6 kmh 29.69 in1005.4 mb 0.00 in0.0 mm 0.00 in0.0 mm 0.00 in0.0 mm
04:00 AM 59.0°F15.0°C 55.1°F12.8°C 87% Calm Calm 1.0 mph1.6 kmh 29.69 in1005.4 mb 0.00 in0.0 mm 0.00 in0.0 mm 0.00 in0.0 mm
04:15 AM 58.6°F14.8°C 55.1°F12.8°C 88% Calm Calm 2.0 mph3.2 kmh 29.70 in1005.8 mb 0.00 in0.0 mm 0.00 in0.0 mm 0.00 in0.0 mm
04:30 AM 58.3°F14.6°C 55.1°F12.8°C 89% Calm Calm 2.0 mph3.2 kmh 29.70 in1005.8 mb 0.00 in0.0 mm 0.00 in0.0 mm 0.00 in0.0 mm
04:45 AM 57.9°F14.4°C 55.0°F12.8°C 90% Calm Calm 1.0 mph1.6 kmh 29.71 in1006.1 mb 0.00 in0.0 mm 0.00 in0.0 mm 0.00 in0.0 mm
05:00 AM 57.6°F14.2°C 54.7°F12.6°C 90% Calm Calm 1.0 mph1.6 kmh 29.71 in1006.1 mb 0.00 in0.0 mm 0.00 in0.0 mm 0.00 in0.0 mm
05:15 AM 57.0°F13.9°C 54.1°F12.3°C 90% Calm Calm 1.0 mph1.6 kmh 29.72 in1006.4 mb 0.00 in0.0 mm 0.00 in0.0 mm 0.00 in0.0 mm
05:30 AM 56.5°F13.6°C 53.9°F12.2°C 91% Calm Calm 1.0 mph1.6 kmh 29.73 in1006.8 mb 0.00 in0.0 mm 0.00 in0.0 mm 0.00 in0.0 mm
05:45 AM 56.4°F13.6°C 53.8°F12.1°C 91% 3.0 mph WNW4.8 kmh WNW 3.0 mph4.8 kmh 29.74 in1007.1 mb 0.00 in0.0 mm 0.00 in0.0 mm 0.00 in0.0 mm
06:00 AM 56.5°F13.6°C 53.6°F12.0°C 90% 1.0 mph WNW1.6 kmh WNW 4.0 mph6.4 kmh 29.74 in1007.1 mb 0.00 in0.0 mm 0.00 in0.0 mm 0.00 in0.0 mm
06:15 AM 56.7°F13.7°C 53.5°F11.9°C 89% 2.0 mph WNW3.2 kmh WNW 3.0 mph4.8 kmh 29.75 in1007.5 mb 0.00 in0.0 mm 0.00 in0.0 mm 0.00 in0.0 mm
06:30 AM 56.6°F13.7°C 53.7°F12.1°C 90% 1.0 mph NW1.6 kmh NW 3.0 mph4.8 kmh 29.75 in1007.5 mb 0.00 in0.0 mm 0.00 in0.0 mm 0.00 in0.0 mm
06:45 AM 56.7°F13.7°C 53.8°F12.1°C 90% 1.0 mph WNW1.6 kmh WNW 5.0 mph8.0 kmh 29.76 in1007.8 mb 0.00 in0.0 mm 0.00 in0.0 mm 0.00 in0.0 mm
07:00 AM 56.9°F13.8°C 53.7°F12.1°C 89% 3.0 mph WSW4.8 kmh WSW 5.0 mph8.0 kmh 29.76 in1007.8 mb 0.00 in0.0 mm 0.00 in0.0 mm 0.00 in0.0 mm
07:15 AM 57.9°F14.4°C 53.7°F12.1°C 86% 4.0 mph WNW6.4 kmh WNW 5.0 mph8.0 kmh 29.76 in1007.8 mb 0.00 in0.0 mm 0.00 in0.0 mm 0.00 in0.0 mm
07:30 AM 59.0°F15.0°C 54.2°F12.3°C 84% 4.0 mph WNW6.4 kmh WNW 5.0 mph8.0 kmh 29.76 in1007.8 mb 0.00 in0.0 mm 0.00 in0.0 mm 0.00 in0.0 mm
07:45 AM 60.1°F15.6°C 54.3°F12.4°C 81% 3.0 mph WNW4.8 kmh WNW 6.0 mph9.7 kmh 29.76 in1007.8 mb 0.00 in0.0 mm 0.00 in0.0 mm 0.00 in0.0 mm
08:00 AM 60.8°F16.0°C 54.9°F12.7°C 81% 3.0 mph W4.8 kmh W 5.0 mph8.0 kmh 29.76 in1007.8 mb 0.00 in0.0 mm 0.00 in0.0 mm 0.00 in0.0 mm
08:15 AM 61.6°F16.4°C 54.7°F12.6°C 78% 3.0 mph NW4.8 kmh NW 7.0 mph11.3 kmh 29.76 in1007.8 mb 0.00 in0.0 mm 0.00 in0.0 mm 0.00 in0.0 mm
08:30 AM 62.3°F16.8°C 54.7°F12.6°C 76% 2.0 mph NW3.2 kmh NW 7.0 mph11.3 kmh 29.76 in1007.8 mb 0.00 in0.0 mm 0.00 in0.0 mm 0.00 in0.0 mm
08:45 AM 63.4°F17.4°C 55.4°F13.0°C 75% 3.0 mph WSW4.8 kmh WSW 5.0 mph8.0 kmh 29.76 in1007.8 mb 0.00 in0.0 mm 0.00 in0.0 mm 0.00 in0.0 mm
09:00 AM 64.2°F17.9°C 55.0°F12.8°C 72% 6.0 mph W9.7 kmh W 9.0 mph14.5 kmh 29.76 in1007.8 mb 0.00 in0.0 mm 0.00 in0.0 mm 0.00 in0.0 mm
09:15 AM 65.1°F18.4°C 55.1°F12.8°C 70% 3.0 mph W4.8 kmh W 6.0 mph9.7 kmh 29.77 in1008.1 mb 0.00 in0.0 mm 0.00 in0.0 mm 0.00 in0.0 mm
09:30 AM 65.1°F18.4°C 55.5°F13.1°C 71% 5.0 mph WSW8.0 kmh WSW 10.0 mph16.1 kmh 29.77 in1008.1 mb 0.00 in0.0 mm 0.00 in0.0 mm 0.00 in0.0 mm
09:45 AM 65.5°F18.6°C 55.5°F13.1°C 70% 4.0 mph WSW6.4 kmh WSW 11.0 mph17.7 kmh 29.77 in1008.1 mb 0.00 in0.0 mm 0.00 in0.0 mm 0.00 in0.0 mm
10:00 AM 66.2°F19.0°C 55.7°F13.2°C 69% 10.0 mph WSW16.1 kmh WSW 12.0 mph19.3 kmh 29.77 in1008.1 mb 0.00 in0.0 mm 0.00 in0.0 mm 0.00 in0.0 mm
10:15 AM 66.8°F19.3°C 55.5°F13.1°C 67% 7.0 mph WSW11.3 kmh WSW 12.0 mph19.3 kmh 29.77 in1008.1 mb 0.00 in0.0 mm 0.00 in0.0 mm 0.00 in0.0 mm
10:30 AM 67.3°F19.6°C 55.6°F13.1°C 66% 7.0 mph WSW11.3 kmh WSW 8.0 mph12.9 kmh 29.77 in1008.1 mb 0.00 in0.0 mm 0.00 in0.0 mm 0.00 in0.0 mm
10:45 AM 68.3°F20.2°C 55.2°F12.9°C 63% 4.0 mph W6.4 kmh W 14.0 mph22.5 kmh 29.77 in1008.1 mb 0.00 in0.0 mm 0.00 in0.0 mm 0.00 in0.0 mm
11:00 AM 68.3°F20.2°C 55.7°F13.2°C 64% 4.0 mph WNW6.4 kmh WNW 11.0 mph17.7 kmh 29.77 in1008.1 mb 0.00 in0.0 mm 0.00 in0.0 mm 0.00 in0.0 mm
11:15 AM 69.4°F20.8°C 56.3°F13.5°C 63% 6.0 mph WSW9.7 kmh WSW 8.0 mph12.9 kmh 29.77 in1008.1 mb 0.00 in0.0 mm 0.00 in0.0 mm 0.00 in0.0 mm
11:30 AM 69.4°F20.8°C 55.8°F13.2°C 62% 10.0 mph WNW16.1 kmh WNW 12.0 mph19.3 kmh 29.78 in1008.5 mb 0.00 in0.0 mm 0.00 in0.0 mm 0.00 in0.0 mm
11:45 AM 70.8°F21.6°C 54.8°F12.7°C 57% 4.0 mph NW6.4 kmh NW 8.0 mph12.9 kmh 29.78 in1008.5 mb 0.00 in0.0 mm 0.00 in0.0 mm 0.00 in0.0 mm
12:00 PM 69.5°F20.8°C 55.5°F13.1°C 61% 6.0 mph W9.7 kmh W 10.0 mph16.1 kmh 29.78 in1008.5 mb 0.00 in0.0 mm 0.00 in0.0 mm 0.00 in0.0 mm
12:15 PM 70.4°F21.3°C 54.5°F12.5°C 57% 6.0 mph WSW9.7 kmh WSW 10.0 mph16.1 kmh 29.79 in1008.8 mb 0.00 in0.0 mm 0.00 in0.0 mm 0.00 in0.0 mm
12:30 PM 69.6°F20.9°C 53.7°F12.1°C 57% 7.0 mph WSW11.3 kmh WSW 14.0 mph22.5 kmh 29.79 in1008.8 mb 0.00 in0.0 mm 0.00 in0.0 mm 0.00 in0.0 mm
12:45 PM 68.0°F20.0°C 54.1°F12.3°C 61% 7.0 mph WSW11.3 kmh WSW 13.0 mph20.9 kmh 29.79 in1008.8 mb 0.00 in0.0 mm 0.00 in0.0 mm 0.00 in0.0 mm
01:00 PM 70.4°F21.3°C 54.5°F12.5°C 57% 3.0 mph NW4.8 kmh NW 13.0 mph20.9 kmh 29.80 in1009.1 mb 0.00 in0.0 mm 0.00 in0.0 mm 0.00 in0.0 mm
01:15 PM 69.2°F20.7°C 54.7°F12.6°C 60% 9.0 mph WSW14.5 kmh WSW 11.0 mph17.7 kmh 29.79 in1008.8 mb 0.00 in0.0 mm 0.00 in0.0 mm 0.00 in0.0 mm
01:30 PM 70.0°F21.1°C 54.6°F12.6°C 58% 13.0 mph WSW20.9 kmh WSW 17.0 mph27.4 kmh 29.79 in1008.8 mb 0.00 in0.0 mm 0.00 in0.0 mm 0.00 in0.0 mm
01:45 PM 72.6°F22.6°C 54.5°F12.5°C 53% 8.0 mph NNW12.9 kmh NNW 21.0 mph33.8 kmh 29.79 in1008.8 mb 0.00 in0.0 mm 0.00 in0.0 mm 0.00 in0.0 mm
02:00 PM 70.5°F21.4°C 56.4°F13.6°C 61% Calm Calm 4.0 mph6.4 kmh 29.80 in1009.1 mb 0.00 in0.0 mm 0.00 in0.0 mm 0.00 in0.0 mm
02:15 PM 71.6°F22.0°C 56.1°F13.4°C 58% 2.0 mph W3.2 kmh W 5.0 mph8.0 kmh 29.80 in1009.1 mb 0.00 in0.0 mm 0.00 in0.0 mm 0.00 in0.0 mm
02:30 PM 69.8°F21.0°C 53.4°F11.9°C 56% 6.0 mph WSW9.7 kmh WSW 11.0 mph17.7 kmh 29.80 in1009.1 mb 0.00 in0.0 mm 0.00 in0.0 mm 0.00 in0.0 mm
02:45 PM 64.7°F18.2°C 53.1°F11.7°C 66% 9.0 mph NW14.5 kmh NW 19.0 mph30.6 kmh 29.83 in1010.2 mb 0.01 in0.3 mm 0.04 in1.0 mm 0.01 in0.3 mm
03:00 PM 58.3°F14.6°C 52.8°F11.6°C 82% 5.0 mph SW8.0 kmh SW 11.0 mph17.7 kmh 29.83 in1010.2 mb 0.12 in3.0 mm 0.15 in3.8 mm 0.12 in3.0 mm
03:15 PM 58.1°F14.5°C 54.3°F12.4°C 87% Calm Calm 3.0 mph4.8 kmh 29.81 in1009.5 mb 0.12 in3.0 mm 0.00 in0.0 mm 0.12 in3.0 mm
03:30 PM 58.4°F14.7°C 54.9°F12.7°C 88% 2.0 mph WSW3.2 kmh WSW 4.0 mph6.4 kmh 29.82 in1009.8 mb 0.12 in3.0 mm 0.00 in0.0 mm 0.12 in3.0 mm
03:45 PM 60.1°F15.6°C 56.5°F13.6°C 88% 1.0 mph WSW1.6 kmh WSW 2.0 mph3.2 kmh 29.83 in1010.2 mb 0.12 in3.0 mm 0.00 in0.0 mm 0.12 in3.0 mm
04:00 PM 61.4°F16.3°C 57.5°F14.2°C 87% 2.0 mph SE3.2 kmh SE 2.0 mph3.2 kmh 29.83 in1010.2 mb 0.12 in3.0 mm 0.00 in0.0 mm 0.12 in3.0 mm
04:15 PM 61.0°F16.1°C 57.4°F14.1°C 88% Calm Calm 2.0 mph3.2 kmh 29.85 in1010.8 mb 0.00 in0.0 mm 0.00 in0.0 mm 0.12 in3.0 mm
04:30 PM 61.8°F16.6°C 57.9°F14.4°C 87% 2.0 mph ESE3.2 kmh ESE 4.0 mph6.4 kmh 29.85 in1010.8 mb 0.00 in0.0 mm 0.00 in0.0 mm 0.12 in3.0 mm
04:45 PM 62.4°F16.9°C 57.8°F14.3°C 85% 3.0 mph SE4.8 kmh SE 5.0 mph8.0 kmh 29.85 in1010.8 mb 0.00 in0.0 mm 0.00 in0.0 mm 0.12 in3.0 mm
05:00 PM 61.2°F16.2°C 57.0°F13.9°C 86% 6.0 mph SSW9.7 kmh SSW 8.0 mph12.9 kmh 29.85 in1010.8 mb 0.00 in0.0 mm 0.00 in0.0 mm 0.12 in3.0 mm
05:15 PM 60.8°F16.0°C 57.2°F14.0°C 88% 2.0 mph SSW3.2 kmh SSW 4.0 mph6.4 kmh 29.85 in1010.8 mb 0.00 in0.0 mm 0.00 in0.0 mm 0.12 in3.0 mm
05:30 PM 61.5°F16.4°C 57.6°F14.2°C 87% 5.0 mph SW8.0 kmh SW 8.0 mph12.9 kmh 29.85 in1010.8 mb 0.00 in0.0 mm 0.00 in0.0 mm 0.12 in3.0 mm
05:45 PM 63.0°F17.2°C 57.4°F14.1°C 82% 10.0 mph SW16.1 kmh SW 12.0 mph19.3 kmh 29.85 in1010.8 mb 0.00 in0.0 mm 0.00 in0.0 mm 0.12 in3.0 mm
06:00 PM 62.3°F16.8°C 57.1°F13.9°C 83% 10.0 mph WSW16.1 kmh WSW 12.0 mph19.3 kmh 29.85 in1010.8 mb 0.00 in0.0 mm 0.00 in0.0 mm 0.12 in3.0 mm
06:15 PM 62.5°F16.9°C 56.6°F13.7°C 81% 12.0 mph WSW19.3 kmh WSW 16.0 mph25.7 kmh 29.86 in1011.2 mb 0.00 in0.0 mm 0.00 in0.0 mm 0.12 in3.0 mm
06:30 PM 63.0°F17.2°C 57.1°F13.9°C 81% 11.0 mph WSW17.7 kmh WSW 14.0 mph22.5 kmh 29.87 in1011.5 mb 0.00 in0.0 mm 0.00 in0.0 mm 0.12 in3.0 mm
06:45 PM 63.6°F17.6°C 58.0°F14.4°C 82% Calm Calm 7.0 mph11.3 kmh 29.88 in1011.9 mb 0.00 in0.0 mm 0.00 in0.0 mm 0.12 in3.0 mm
07:00 PM 64.8°F18.2°C 59.2°F15.1°C 82% Calm Calm 1.0 mph1.6 kmh 29.88 in1011.9 mb 0.00 in0.0 mm 0.00 in0.0 mm 0.12 in3.0 mm
07:15 PM 65.7°F18.7°C 57.6°F14.2°C 75% Calm Calm 6.0 mph9.7 kmh 29.89 in1012.2 mb 0.00 in0.0 mm 0.00 in0.0 mm 0.12 in3.0 mm
07:30 PM 64.2°F17.9°C 57.2°F14.0°C 78% 3.0 mph WSW4.8 kmh WSW 6.0 mph9.7 kmh 29.89 in1012.2 mb 0.00 in0.0 mm 0.00 in0.0 mm 0.12 in3.0 mm
07:45 PM 62.2°F16.8°C 57.0°F13.9°C 83% 2.0 mph S3.2 kmh S 4.0 mph6.4 kmh 29.89 in1012.2 mb 0.00 in0.0 mm 0.00 in0.0 mm 0.12 in3.0 mm
08:00 PM 61.5°F16.4°C 57.3°F14.1°C 86% 4.0 mph ESE6.4 kmh ESE 4.0 mph6.4 kmh 29.89 in1012.2 mb 0.00 in0.0 mm 0.00 in0.0 mm 0.12 in3.0 mm
08:15 PM 60.7°F15.9°C 56.8°F13.8°C 87% 2.0 mph S3.2 kmh S 4.0 mph6.4 kmh 29.90 in1012.5 mb 0.00 in0.0 mm 0.00 in0.0 mm 0.12 in3.0 mm
08:30 PM 61.8°F16.6°C 56.9°F13.8°C 84% 7.0 mph WSW11.3 kmh WSW 11.0 mph17.7 kmh 29.90 in1012.5 mb 0.00 in0.0 mm 0.00 in0.0 mm 0.12 in3.0 mm
08:45 PM 61.7°F16.5°C 57.2°F14.0°C 85% 2.0 mph NW3.2 kmh NW 8.0 mph12.9 kmh 29.90 in1012.5 mb 0.00 in0.0 mm 0.00 in0.0 mm 0.12 in3.0 mm
09:00 PM 61.7°F16.5°C 57.2°F14.0°C 85% 4.0 mph NW6.4 kmh NW 6.0 mph9.7 kmh 29.90 in1012.5 mb 0.00 in0.0 mm 0.00 in0.0 mm 0.12 in3.0 mm
09:15 PM 61.5°F16.4°C 57.0°F13.9°C 85% 4.0 mph WSW6.4 kmh WSW 9.0 mph14.5 kmh 29.91 in1012.9 mb 0.00 in0.0 mm 0.00 in0.0 mm 0.12 in3.0 mm
09:30 PM 61.0°F16.1°C 57.1°F13.9°C 87% 2.0 mph WSW3.2 kmh WSW 6.0 mph9.7 kmh 29.91 in1012.9 mb 0.00 in0.0 mm 0.00 in0.0 mm 0.12 in3.0 mm
09:45 PM 60.6°F15.9°C 57.0°F13.9°C 88% 3.0 mph WNW4.8 kmh WNW 6.0 mph9.7 kmh 29.92 in1013.2 mb 0.00 in0.0 mm 0.00 in0.0 mm 0.12 in3.0 mm
10:00 PM 60.2°F15.7°C 57.0°F13.9°C 89% 3.0 mph W4.8 kmh W 3.0 mph4.8 kmh 29.92 in1013.2 mb 0.00 in0.0 mm 0.00 in0.0 mm 0.12 in3.0 mm
10:15 PM 60.0°F15.6°C 56.8°F13.8°C 89% Calm Calm 2.0 mph3.2 kmh 29.93 in1013.5 mb 0.00 in0.0 mm 0.00 in0.0 mm 0.12 in3.0 mm
10:30 PM 60.0°F15.6°C 56.8°F13.8°C 89% 1.0 mph W1.6 kmh W 4.0 mph6.4 kmh 29.93 in1013.5 mb 0.00 in0.0 mm 0.00 in0.0 mm 0.12 in3.0 mm
10:45 PM 59.9°F15.5°C 56.7°F13.7°C 89% 3.0 mph NW4.8 kmh NW 5.0 mph8.0 kmh 29.93 in1013.5 mb 0.00 in0.0 mm 0.00 in0.0 mm 0.12 in3.0 mm
11:00 PM 59.7°F15.4°C 56.5°F13.6°C 89% Calm Calm 2.0 mph3.2 kmh 29.93 in1013.5 mb 0.00 in0.0 mm 0.00 in0.0 mm 0.12 in3.0 mm
11:15 PM 59.3°F15.2°C 56.1°F13.4°C 89% 2.0 mph W3.2 kmh W 4.0 mph6.4 kmh 29.93 in1013.5 mb 0.00 in0.0 mm 0.00 in0.0 mm 0.12 in3.0 mm
11:30 PM 58.9°F14.9°C 55.7°F13.2°C 89% 3.0 mph WNW4.8 kmh WNW 4.0 mph6.4 kmh 29.93 in1013.5 mb 0.00 in0.0 mm 0.00 in0.0 mm 0.12 in3.0 mm
11:45 PM 58.7°F14.8°C 55.8°F13.2°C 90% 4.0 mph WSW6.4 kmh WSW 4.0 mph6.4 kmh 29.93 in1013.5 mb 0.00 in0.0 mm 0.00 in0.0 mm 0.12 in3.0 mm